Terminal Aerodrome Forecast
Issued by NWS

Home | Current Version | Previous Version | Text Only | Print | Product List | Glossary On
Versions: 1 2 3 4 5 6 7 8 9 10 11 12 13 14
050
FTUS46 KSTO 251139
TAFMHR
TAF
KMHR 251139Z 2512/2612 VRB04KT P6SM SCT250
     FM252100 22007KT P6SM BKN250
     FM260800 16010KT P6SM OVC100=

USA.gov is the U.S. government's official web portal to all federal, state and local government web resources and services.